Terminal Aerodrome Forecast
Issued by NWS Paducah, KY

Home | Current Version | Previous Version | Text Only | Print | Product List | Glossary On
Versions: 1 2 3 4 5 6 7 8 9 10 11 12 13 14 15 16 17 18 19
469
FTUS43 KPAH 052320
TAFEVV
TAF
KEVV 052320Z 0600/0624 10006KT P6SM SCT025
     FM060600 05005KT 4SM BR OVC015
     FM060800 02005KT 2SM -RA BR OVC005
     FM061600 33008KT 4SM -DZ BR OVC012
     FM061900 31012G20KT P6SM OVC025=

USA.gov is the U.S. government's official web portal to all federal, state and local government web resources and services.